Time;durP1;ratioP1;P1;durP2;ratioP2;P2;SDS_P1;SDS_P2;PMS_P1;PMS_P2;Temp;Humidity;BMP_temperature;BMP_pressure;BME280_temperature;BME280_humidity;BME280_pressure;Samples;Min_cycle;Max_cycle;Signal;HPM_P1;HPM_P2
2022/03/06 00:02:15;;;;;;;234.88;59.33;;;;;;;;;;6147436;28;20051;-60
2022/03/06 00:05:16;;;;;;;221.35;54.50;;;;;;;;;;6150137;28;20131;-60
2022/03/06 00:08:17;;;;;;;175.68;50.65;;;;;;;;;;6148191;28;20047;-62
2022/03/06 00:11:17;;;;;;;175.50;48.33;;;;;;;;;;6154864;28;20089;-60
2022/03/06 00:14:18;;;;;;;186.45;50.83;;;;;;;;;;6148626;28;20046;-61
2022/03/06 00:17:19;;;;;;;163.35;48.47;;;;;;;;;;6148439;28;20121;-60
2022/03/06 00:20:20;;;;;;;164.18;46.30;;;;;;;;;;6148768;28;20059;-62
2022/03/06 00:23:20;;;;;;;152.77;45.25;;;;;;;;;;6149630;28;20134;-60
2022/03/06 00:26:21;;;;;;;153.10;44.17;;;;;;;;;;6153473;28;20417;-60
2022/03/06 00:29:22;;;;;;;156.38;46.95;;;;;;;;;;6143989;28;20512;-62
2022/03/06 00:32:23;;;;;;;176.48;48.70;;;;;;;;;;6147324;28;20043;-62
2022/03/06 00:35:24;;;;;;;165.27;47.45;;;;;;;;;;6152724;28;20587;-62
2022/03/06 00:38:25;;;;;;;151.40;45.50;;;;;;;;;;6146731;28;20039;-62
2022/03/06 00:41:26;;;;;;;148.45;43.72;;;;;;;;;;6147534;28;20086;-61
2022/03/06 00:44:27;;;;;;;150.07;45.10;;;;;;;;;;6133194;28;20187;-61
2022/03/06 00:47:27;;;;;;;157.88;45.83;;;;;;;;;;6145926;28;20044;-61
2022/03/06 00:50:28;;;;;;;164.45;48.33;;;;;;;;;;6146210;28;20058;-61
2022/03/06 00:53:28;;;;;;;148.35;45.05;;;;;;;;;;6151215;28;20051;-61
2022/03/06 00:56:29;;;;;;;144.57;44.85;;;;;;;;;;6158168;28;20391;-61
2022/03/06 00:59:34;;;;;;;151.23;45.88;;;;;;;;;;6168326;28;20047;-61
2022/03/06 01:02:35;;;;;;;157.93;43.80;;;;;;;;;;6151036;28;20051;-61
2022/03/06 01:05:35;;;;;;;164.02;46.53;;;;;;;;;;6150524;28;20462;-61
2022/03/06 01:08:36;;;;;;;158.35;43.92;;;;;;;;;;6154931;28;20071;-61
2022/03/06 01:11:37;;;;;;;170.13;45.78;;;;;;;;;;6164076;28;20133;-61
2022/03/06 01:14:38;;;;;;;158.75;47.67;;;;;;;;;;6165574;28;20475;-61
2022/03/06 01:17:38;;;;;;;162.98;47.00;;;;;;;;;;6154555;28;20059;-62
2022/03/06 01:20:40;;;;;;;163.07;45.42;;;;;;;;;;6153005;28;20853;-60
2022/03/06 01:23:41;;;;;;;162.10;50.28;;;;;;;;;;6155248;28;20797;-62
2022/03/06 01:26:41;;;;;;;149.68;47.75;;;;;;;;;;6150460;28;20047;-60
2022/03/06 01:29:44;;;;;;;163.55;47.75;;;;;;;;;;6154328;28;20043;-59
2022/03/06 01:32:45;;;;;;;165.93;46.70;;;;;;;;;;6152343;28;20894;-62
2022/03/06 01:35:45;;;;;;;174.65;49.55;;;;;;;;;;6158982;28;20078;-62
2022/03/06 01:38:46;;;;;;;171.10;47.67;;;;;;;;;;6150563;28;20051;-62
2022/03/06 01:41:46;;;;;;;143.07;43.80;;;;;;;;;;6155009;28;20184;-62
2022/03/06 01:44:52;;;;;;;164.98;46.42;;;;;;;;;;6167981;28;20185;-62
2022/03/06 01:47:54;;;;;;;164.73;47.58;;;;;;;;;;6162895;28;20054;-62
2022/03/06 01:50:55;;;;;;;159.02;45.38;;;;;;;;;;6156485;28;20082;-62
2022/03/06 01:53:55;;;;;;;153.77;45.78;;;;;;;;;;6157889;28;20401;-61
2022/03/06 01:56:56;;;;;;;153.82;45.17;;;;;;;;;;6155812;28;20975;-62
2022/03/06 01:59:57;;;;;;;140.90;40.47;;;;;;;;;;6149643;28;20063;-61
2022/03/06 02:02:58;;;;;;;153.07;45.65;;;;;;;;;;6154442;28;20047;-62
2022/03/06 02:05:58;;;;;;;178.82;52.15;;;;;;;;;;6157496;28;20088;-62
2022/03/06 02:08:59;;;;;;;148.73;47.13;;;;;;;;;;6155993;28;20046;-62
2022/03/06 02:15:20;;;;;;;130.57;40.22;;;;;;;;;;6157147;28;23096;-62
2022/03/06 02:18:21;;;;;;;136.20;42.35;;;;;;;;;;6154922;28;20148;-62
2022/03/06 02:21:22;;;;;;;144.02;43.10;;;;;;;;;;6157842;28;20062;-62
2022/03/06 02:24:23;;;;;;;139.18;41.42;;;;;;;;;;6154620;28;20129;-62
2022/03/06 02:27:24;;;;;;;132.30;39.92;;;;;;;;;;6156403;28;20483;-62
2022/03/06 02:30:30;;;;;;;123.95;40.13;;;;;;;;;;6153656;28;20127;-61
2022/03/06 02:33:31;;;;;;;119.25;38.97;;;;;;;;;;6152835;28;20055;-61
2022/03/06 02:36:32;;;;;;;131.77;39.65;;;;;;;;;;6157793;28;20046;-61
2022/03/06 02:39:33;;;;;;;136.68;40.53;;;;;;;;;;6156952;28;20051;-61
2022/03/06 02:42:37;;;;;;;127.85;42.03;;;;;;;;;;6155817;28;20506;-61
2022/03/06 02:45:40;;;;;;;124.22;42.28;;;;;;;;;;6155514;28;20070;-61
2022/03/06 02:48:41;;;;;;;125.88;38.40;;;;;;;;;;6153959;28;20062;-61
2022/03/06 02:51:43;;;;;;;114.50;37.45;;;;;;;;;;6154283;28;20078;-62
2022/03/06 02:54:44;;;;;;;;;;;;;;;;;;6154314;28;20047;-61
2022/03/06 02:57:46;;;;;;;113.35;34.25;;;;;;;;;;6158185;28;20396;-62
2022/03/06 03:00:46;;;;;;;126.27;37.23;;;;;;;;;;6155716;28;20524;-61
2022/03/06 03:03:47;;;;;;;130.35;37.00;;;;;;;;;;6153081;28;20051;-61
2022/03/06 03:06:50;;;;;;;128.63;37.75;;;;;;;;;;6157359;28;20501;-61
2022/03/06 03:09:52;;;;;;;124.47;38.03;;;;;;;;;;6154069;28;20093;-61
2022/03/06 03:12:54;;;;;;;116.10;37.30;;;;;;;;;;6151708;28;20454;-62
2022/03/06 03:15:55;;;;;;;120.20;36.92;;;;;;;;;;6155201;28;20043;-62
2022/03/06 03:18:55;;;;;;;124.05;36.20;;;;;;;;;;6154399;28;20561;-61
2022/03/06 03:21:56;;;;;;;112.38;34.33;;;;;;;;;;6155719;28;20047;-61
2022/03/06 03:24:57;;;;;;;118.32;36.55;;;;;;;;;;6154190;28;20482;-62
2022/03/06 03:27:57;;;;;;;127.82;35.53;;;;;;;;;;6157145;28;20540;-61
2022/03/06 03:30:58;;;;;;;113.53;33.83;;;;;;;;;;6152485;28;20151;-61
2022/03/06 03:33:59;;;;;;;113.10;36.33;;;;;;;;;;6155222;28;20137;-62
2022/03/06 03:36:59;;;;;;;114.03;36.03;;;;;;;;;;6157539;28;20471;-62
2022/03/06 03:40:00;;;;;;;108.30;32.60;;;;;;;;;;6155754;28;20056;-61
2022/03/06 03:43:01;;;;;;;120.75;37.00;;;;;;;;;;6160268;28;20510;-62
2022/03/06 03:46:02;;;;;;;114.97;35.33;;;;;;;;;;6157718;28;20098;-62
2022/03/06 03:49:03;;;;;;;116.45;36.15;;;;;;;;;;6162287;28;20146;-62
2022/03/06 03:52:03;;;;;;;107.40;31.92;;;;;;;;;;6156997;28;21069;-62
2022/03/06 03:55:05;;;;;;;101.18;30.30;;;;;;;;;;6159667;28;20114;-62
2022/03/06 03:58:06;;;;;;;96.15;31.23;;;;;;;;;;6158961;28;20082;-62
2022/03/06 04:01:06;;;;;;;96.97;31.98;;;;;;;;;;6158402;28;20057;-62
2022/03/06 04:04:08;;;;;;;106.35;29.95;;;;;;;;;;6159266;28;20059;-62
2022/03/06 04:07:08;;;;;;;99.90;28.70;;;;;;;;;;6157355;28;20093;-63
2022/03/06 04:10:09;;;;;;;92.95;27.85;;;;;;;;;;6160861;28;20158;-62
2022/03/06 04:13:10;;;;;;;91.45;28.55;;;;;;;;;;6156597;28;20551;-62
2022/03/06 04:16:10;;;;;;;103.40;29.50;;;;;;;;;;6157213;28;20759;-62
2022/03/06 04:19:11;;;;;;;98.75;29.63;;;;;;;;;;6158689;28;20475;-62
2022/03/06 04:22:12;;;;;;;94.78;29.88;;;;;;;;;;6159655;28;20603;-60
2022/03/06 04:25:12;;;;;;;104.60;30.85;;;;;;;;;;6160728;28;20057;-60
2022/03/06 04:28:13;;;;;;;111.88;32.90;;;;;;;;;;6159566;28;20063;-61
2022/03/06 04:31:14;;;;;;;112.25;32.03;;;;;;;;;;6157535;28;20478;-62
2022/03/06 04:34:14;;;;;;;104.65;30.88;;;;;;;;;;6156930;28;20394;-61
2022/03/06 04:37:16;;;;;;;106.10;30.45;;;;;;;;;;6158695;28;20153;-61
2022/03/06 04:40:17;;;;;;;104.63;30.10;;;;;;;;;;6158400;28;20071;-62
2022/03/06 04:43:18;;;;;;;98.45;29.80;;;;;;;;;;6157539;28;20461;-62
2022/03/06 04:46:19;;;;;;;101.68;29.58;;;;;;;;;;6159917;28;20085;-62
2022/03/06 04:49:20;;;;;;;100.85;29.67;;;;;;;;;;6158048;28;20051;-62
2022/03/06 04:52:21;;;;;;;101.15;29.73;;;;;;;;;;6159659;28;20047;-62
2022/03/06 04:55:21;;;;;;;96.18;29.88;;;;;;;;;;6157298;28;20137;-60
2022/03/06 04:58:22;;;;;;;96.68;32.38;;;;;;;;;;6156830;28;20062;-60
2022/03/06 05:01:24;;;;;;;94.70;31.05;;;;;;;;;;6159304;28;20471;-62
2022/03/06 05:04:25;;;;;;;98.78;30.40;;;;;;;;;;6157334;28;20074;-60
2022/03/06 05:07:25;;;;;;;109.38;29.38;;;;;;;;;;6159753;28;20046;-62
2022/03/06 05:10:26;;;;;;;107.65;29.63;;;;;;;;;;6158080;28;20047;-62
2022/03/06 05:13:27;;;;;;;98.82;28.48;;;;;;;;;;6155962;28;20134;-62
2022/03/06 05:16:27;;;;;;;102.95;29.75;;;;;;;;;;6159323;28;20134;-62
2022/03/06 05:19:28;;;;;;;94.07;29.42;;;;;;;;;;6155144;28;20142;-61
2022/03/06 05:22:29;;;;;;;98.80;30.02;;;;;;;;;;6158555;28;20085;-61
2022/03/06 05:25:30;;;;;;;101.80;29.30;;;;;;;;;;6160565;28;20818;-61
2022/03/06 05:28:31;;;;;;;111.10;30.85;;;;;;;;;;6155246;28;20133;-61
2022/03/06 05:31:31;;;;;;;115.60;33.13;;;;;;;;;;6159289;28;20097;-62
2022/03/06 05:34:32;;;;;;;112.28;31.70;;;;;;;;;;6156295;28;20055;-62
2022/03/06 05:37:33;;;;;;;129.55;32.33;;;;;;;;;;6154073;28;20632;-62
2022/03/06 05:40:34;;;;;;;117.40;31.45;;;;;;;;;;6158572;28;20066;-61
2022/03/06 05:43:34;;;;;;;81.78;26.60;;;;;;;;;;6143529;28;20051;-61
2022/03/06 05:46:35;;;;;;;114.22;30.95;;;;;;;;;;6146586;29;20106;-62
2022/03/06 05:49:36;;;;;;;141.90;37.50;;;;;;;;;;6164693;28;20086;-61
2022/03/06 05:52:37;;;;;;;113.25;31.85;;;;;;;;;;6156738;28;20047;-61
2022/03/06 05:55:38;;;;;;;95.78;30.13;;;;;;;;;;6153596;28;20138;-62
2022/03/06 05:58:38;;;;;;;95.40;30.13;;;;;;;;;;6154724;28;20482;-62
2022/03/06 06:01:39;;;;;;;92.43;27.42;;;;;;;;;;6421776;23;20617;-62
2022/03/06 06:04:41;;;;;;;100.75;29.90;;;;;;;;;;6228045;28;20555;-61
2022/03/06 06:07:41;;;;;;;95.57;29.37;;;;;;;;;;6231701;28;20144;-61
2022/03/06 06:10:43;;;;;;;73.55;22.98;;;;;;;;;;6230361;28;20061;-62
2022/03/06 06:13:43;;;;;;;74.32;23.10;;;;;;;;;;6229981;28;20044;-62
2022/03/06 06:16:44;;;;;;;66.97;22.80;;;;;;;;;;6232845;28;20042;-62
2022/03/06 06:19:45;;;;;;;67.65;22.60;;;;;;;;;;6232411;28;20041;-62
2022/03/06 06:22:46;;;;;;;91.00;25.95;;;;;;;;;;6228364;28;20395;-61
2022/03/06 06:25:46;;;;;;;100.38;29.45;;;;;;;;;;6231095;28;20555;-61
2022/03/06 06:28:52;;;;;;;108.20;31.42;;;;;;;;;;6229581;28;20492;-62
2022/03/06 06:31:53;;;;;;;90.68;28.45;;;;;;;;;;6230404;28;20049;-62
2022/03/06 06:34:54;;;;;;;81.40;24.95;;;;;;;;;;6228642;28;20040;-62
2022/03/06 06:37:54;;;;;;;70.10;22.48;;;;;;;;;;6234394;28;20129;-62
2022/03/06 06:40:55;;;;;;;70.53;22.85;;;;;;;;;;6238783;28;20049;-62
2022/03/06 06:43:56;;;;;;;78.15;23.23;;;;;;;;;;6238554;28;20061;-61
2022/03/06 06:46:56;;;;;;;81.47;24.23;;;;;;;;;;6237762;28;20045;-61
2022/03/06 06:49:57;;;;;;;70.97;22.35;;;;;;;;;;6228260;28;20834;-61
2022/03/06 06:52:58;;;;;;;43.13;15.27;;;;;;;;;;6225886;28;20033;-61
2022/03/06 06:55:58;;;;;;;54.30;17.83;;;;;;;;;;6226743;28;20049;-67
2022/03/06 06:58:59;;;;;;;59.22;19.08;;;;;;;;;;6226319;28;20060;-63
2022/03/06 07:01:59;;;;;;;66.47;22.92;;;;;;;;;;6229106;28;20054;-63
2022/03/06 07:05:00;;;;;;;73.18;23.30;;;;;;;;;;6224997;28;20140;-61
2022/03/06 07:08:01;;;;;;;71.13;23.98;;;;;;;;;;6225714;28;20395;-61
2022/03/06 07:11:02;;;;;;;68.05;22.90;;;;;;;;;;6226451;28;20057;-60
2022/03/06 07:14:02;;;;;;;73.20;24.95;;;;;;;;;;6229569;28;20049;-61
2022/03/06 07:17:03;;;;;;;74.22;24.38;;;;;;;;;;6239491;28;20483;-61
2022/03/06 07:20:05;;;;;;;61.13;22.17;;;;;;;;;;6239876;28;20488;-60
2022/03/06 07:23:06;;;;;;;66.43;22.47;;;;;;;;;;6220006;28;20050;-71
2022/03/06 07:26:06;;;;;;;66.05;22.98;;;;;;;;;;6236958;28;20588;-61
2022/03/06 07:29:07;;;;;;;57.15;18.80;;;;;;;;;;6234794;28;20045;-61
2022/03/06 07:32:08;;;;;;;59.05;18.75;;;;;;;;;;6236952;28;20508;-61
2022/03/06 07:35:10;;;;;;;61.42;19.65;;;;;;;;;;6229937;28;20077;-62
2022/03/06 07:38:10;;;;;;;45.70;16.10;;;;;;;;;;6245005;28;20057;-61
2022/03/06 07:41:12;;;;;;;40.28;13.32;;;;;;;;;;6243096;28;20471;-61
2022/03/06 07:44:13;;;;;;;44.27;13.47;;;;;;;;;;6240250;28;20092;-64
2022/03/06 07:47:13;;;;;;;42.88;14.40;;;;;;;;;;6235087;28;20053;-63
2022/03/06 07:50:15;;;;;;;32.75;11.60;;;;;;;;;;6241978;28;20144;-63
2022/03/06 07:53:15;;;;;;;32.08;12.10;;;;;;;;;;6241529;28;20438;-63
2022/03/06 07:56:16;;;;;;;27.13;9.07;;;;;;;;;;6240767;28;20080;-63
2022/03/06 07:59:17;;;;;;;31.75;10.10;;;;;;;;;;6238447;28;20046;-61
2022/03/06 08:02:18;;;;;;;23.95;9.32;;;;;;;;;;6229726;28;20129;-71
2022/03/06 08:05:18;;;;;;;25.83;9.00;;;;;;;;;;6235598;28;20049;-62
2022/03/06 08:08:19;;;;;;;29.77;9.65;;;;;;;;;;6240889;28;20200;-62
2022/03/06 08:11:21;;;;;;;20.77;7.43;;;;;;;;;;6232325;28;20112;-61
2022/03/06 08:14:21;;;;;;;23.98;8.18;;;;;;;;;;6236506;28;20065;-62
2022/03/06 08:17:22;;;;;;;26.23;9.73;;;;;;;;;;6237145;28;20123;-60
2022/03/06 08:20:23;;;;;;;29.52;9.18;;;;;;;;;;6242600;28;20529;-61
2022/03/06 08:23:23;;;;;;;33.42;10.52;;;;;;;;;;6241243;28;20065;-61
2022/03/06 08:26:24;;;;;;;27.83;8.98;;;;;;;;;;6236603;28;20073;-61
2022/03/06 08:29:25;;;;;;;25.23;8.95;;;;;;;;;;6236748;28;20054;-62
2022/03/06 08:32:25;;;;;;;22.00;8.07;;;;;;;;;;6240669;28;20589;-62
2022/03/06 08:35:26;;;;;;;27.70;8.63;;;;;;;;;;6236400;28;20053;-61
2022/03/06 08:38:27;;;;;;;23.58;8.20;;;;;;;;;;6235681;28;20140;-61
2022/03/06 08:41:28;;;;;;;22.60;8.48;;;;;;;;;;6236784;28;20062;-64
2022/03/06 08:44:28;;;;;;;24.33;8.57;;;;;;;;;;6239085;28;20116;-65
2022/03/06 08:47:29;;;;;;;43.40;13.55;;;;;;;;;;6237658;28;20049;-62
2022/03/06 08:50:30;;;;;;;39.72;12.20;;;;;;;;;;6236230;28;20045;-62
2022/03/06 08:53:31;;;;;;;26.38;8.80;;;;;;;;;;6243291;28;20046;-63
2022/03/06 08:56:32;;;;;;;28.00;8.27;;;;;;;;;;6227641;28;20176;-61
2022/03/06 08:59:33;;;;;;;67.80;28.50;;;;;;;;;;6234297;28;20079;-62
2022/03/06 09:02:34;;;;;;;27.75;12.57;;;;;;;;;;6230972;28;20096;-61
2022/03/06 09:05:40;;;;;;;27.13;9.63;;;;;;;;;;6227663;28;20289;-61
2022/03/06 09:08:41;;;;;;;65.03;28.50;;;;;;;;;;6230805;28;20413;-62
2022/03/06 09:11:42;;;;;;;26.20;9.00;;;;;;;;;;6229488;28;20038;-62
2022/03/06 09:14:43;;;;;;;28.88;10.57;;;;;;;;;;6221665;28;20108;-62
2022/03/06 09:17:43;;;;;;;40.60;13.95;;;;;;;;;;6229819;28;20404;-62
2022/03/06 09:20:44;;;;;;;29.23;9.32;;;;;;;;;;6229739;28;20049;-62
2022/03/06 09:23:45;;;;;;;33.70;10.98;;;;;;;;;;6228650;28;20045;-61
2022/03/06 09:26:47;;;;;;;34.78;11.75;;;;;;;;;;6229432;28;20054;-62
2022/03/06 09:29:48;;;;;;;42.90;16.33;;;;;;;;;;6230939;28;20044;-62
2022/03/06 09:32:49;;;;;;;51.28;26.05;;;;;;;;;;6226871;28;20067;-61
2022/03/06 09:35:50;;;;;;;54.13;22.30;;;;;;;;;;6228610;28;20076;-62
2022/03/06 09:38:51;;;;;;;31.92;12.30;;;;;;;;;;6227769;28;20064;-62
2022/03/06 09:41:54;;;;;;;35.80;12.15;;;;;;;;;;6238085;28;20144;-61
2022/03/06 09:44:55;;;;;;;41.47;13.30;;;;;;;;;;6219096;28;20041;-62
2022/03/06 09:47:58;;;;;;;34.17;12.05;;;;;;;;;;6233663;28;20045;-61
2022/03/06 09:51:01;;;;;;;31.65;11.40;;;;;;;;;;6225915;28;20360;-61
2022/03/06 09:54:02;;;;;;;30.52;12.27;;;;;;;;;;6228745;28;20050;-61
2022/03/06 09:57:04;;;;;;;26.15;10.23;;;;;;;;;;6226384;28;20607;-61
2022/03/06 10:00:07;;;;;;;32.60;10.02;;;;;;;;;;6226932;28;20569;-62
2022/03/06 10:03:17;;;;;;;20.45;9.07;;;;;;;;;;6228653;28;20417;-61
2022/03/06 10:06:18;;;;;;;26.00;10.07;;;;;;;;;;6228968;28;20053;-61
2022/03/06 10:09:18;;;;;;;35.03;11.20;;;;;;;;;;6231985;28;20045;-62
2022/03/06 10:12:29;;;;;;;33.55;13.13;;;;;;;;;;6227325;28;20053;-61
2022/03/06 10:15:30;;;;;;;33.25;12.20;;;;;;;;;;6230037;28;20046;-62
2022/03/06 10:18:33;;;;;;;51.17;14.18;;;;;;;;;;6228089;28;20948;-62
2022/03/06 10:21:34;;;;;;;40.08;15.13;;;;;;;;;;6227988;28;20046;-62
2022/03/06 10:24:45;;;;;;;46.30;15.73;;;;;;;;;;6225860;28;20181;-62
2022/03/06 10:27:57;;;;;;;36.70;15.27;;;;;;;;;;6230988;28;20057;-62
2022/03/06 10:31:04;;;;;;;33.63;12.93;;;;;;;;;;6229436;28;20057;-61
2022/03/06 10:34:07;;;;;;;27.80;9.95;;;;;;;;;;6230097;28;20342;-62
2022/03/06 10:37:12;;;;;;;38.65;12.20;;;;;;;;;;6229189;28;20049;-62
2022/03/06 10:40:14;;;;;;;26.88;10.60;;;;;;;;;;6230926;28;20080;-62
2022/03/06 10:43:24;;;;;;;;;;;;;;;;;;6231337;28;20673;-62
2022/03/06 10:46:25;;;;;;;31.52;10.90;;;;;;;;;;6226067;28;19932;-62
2022/03/06 10:49:26;;;;;;;43.75;12.80;;;;;;;;;;6236090;28;20081;-62
2022/03/06 10:52:27;;;;;;;33.85;11.07;;;;;;;;;;6230985;28;20516;-62
2022/03/06 10:55:35;;;;;;;29.77;10.15;;;;;;;;;;6233738;28;20050;-62
2022/03/06 10:58:38;;;;;;;25.50;9.05;;;;;;;;;;6229353;28;20171;-61
2022/03/06 11:01:39;;;;;;;30.73;10.35;;;;;;;;;;6230079;28;20615;-62
2022/03/06 11:04:42;;;;;;;83.85;25.92;;;;;;;;;;6231339;28;20111;-62
2022/03/06 11:07:44;;;;;;;39.67;13.32;;;;;;;;;;6230349;28;20041;-62
2022/03/06 11:10:45;;;;;;;40.17;14.00;;;;;;;;;;6236852;28;20057;-61
2022/03/06 11:13:46;;;;;;;29.92;11.15;;;;;;;;;;6232418;28;20176;-62
2022/03/06 11:16:48;;;;;;;27.63;11.48;;;;;;;;;;6233985;28;20083;-62
2022/03/06 11:19:49;;;;;;;19.90;8.52;;;;;;;;;;6235554;28;20486;-62
2022/03/06 11:22:54;;;;;;;20.80;9.18;;;;;;;;;;6230851;28;20139;-62
2022/03/06 11:26:36;;;;;;;32.50;11.05;;;;;;;;;;6234773;28;20061;-61
2022/03/06 11:29:48;;;;;;;22.92;10.35;;;;;;;;;;6230449;28;20053;-61
2022/03/06 11:33:09;;;;;;;;;;;;;;;;;;6229682;28;20061;-61
2022/03/06 11:36:20;;;;;;;26.85;10.35;;;;;;;;;;6234570;28;19921;-62
2022/03/06 11:39:29;;;;;;;25.67;10.02;;;;;;;;;;6230136;28;20042;-62
2022/03/06 11:42:48;;;;;;;33.70;12.40;;;;;;;;;;6231035;28;20076;-62
2022/03/06 11:45:52;;;;;;;24.38;9.98;;;;;;;;;;6230781;28;20218;-62
2022/03/06 11:48:55;;;;;;;38.55;12.85;;;;;;;;;;6228593;28;20676;-62
2022/03/06 11:51:56;;;;;;;36.65;13.10;;;;;;;;;;6233259;28;20141;-62
2022/03/06 11:54:58;;;;;;;75.38;18.92;;;;;;;;;;6234191;28;20045;-62
2022/03/06 11:57:59;;;;;;;;;;;;;;;;;;6234173;28;20098;-62
2022/03/06 12:01:02;;;;;;;29.77;10.70;;;;;;;;;;6230826;28;19929;-62
2022/03/06 12:04:06;;;;;;;34.13;11.85;;;;;;;;;;6229421;28;20496;-60
2022/03/06 12:07:09;;;;;;;50.10;14.52;;;;;;;;;;6229182;28;20148;-61
2022/03/06 12:10:11;;;;;;;30.38;11.20;;;;;;;;;;6218879;28;20046;-60
2022/03/06 12:13:20;;;;;;;19.70;8.93;;;;;;;;;;6241306;28;20057;-62
2022/03/06 12:16:21;;;;;;;23.98;10.05;;;;;;;;;;6220805;28;20414;-60
2022/03/06 12:19:23;;;;;;;25.90;9.85;;;;;;;;;;6236539;28;20117;-60
2022/03/06 12:22:30;;;;;;;25.08;9.82;;;;;;;;;;6243260;28;20099;-60
2022/03/06 12:25:34;;;;;;;23.25;9.77;;;;;;;;;;6239389;28;20045;-62
2022/03/06 12:28:40;;;;;;;34.78;13.13;;;;;;;;;;6242176;28;20148;-60
2022/03/06 12:31:41;;;;;;;30.48;11.82;;;;;;;;;;6241141;28;20077;-62
2022/03/06 12:34:42;;;;;;;26.10;10.75;;;;;;;;;;6232377;28;20053;-61
2022/03/06 12:37:59;;;;;;;24.05;10.43;;;;;;;;;;6238005;28;20064;-61
2022/03/06 12:41:03;;;;;;;29.67;12.50;;;;;;;;;;6231268;28;20045;-61
2022/03/06 12:44:07;;;;;;;100.78;23.92;;;;;;;;;;6237336;28;20049;-61
2022/03/06 12:47:09;;;;;;;29.38;11.52;;;;;;;;;;6235033;28;20046;-61
2022/03/06 12:50:12;;;;;;;32.63;12.82;;;;;;;;;;6234568;28;20048;-62
2022/03/06 12:53:16;;;;;;;27.77;11.75;;;;;;;;;;6230951;28;20057;-62
2022/03/06 12:56:27;;;;;;;;;;;;;;;;;;6235140;28;20049;-62
2022/03/06 12:59:29;;;;;;;27.10;10.63;;;;;;;;;;6211937;28;19937;-60
2022/03/06 13:02:29;;;;;;;27.00;11.30;;;;;;;;;;6219476;28;20188;-62
2022/03/06 13:05:33;;;;;;;26.48;10.20;;;;;;;;;;6218804;28;20076;-61
2022/03/06 13:08:44;;;;;;;24.30;9.93;;;;;;;;;;6213982;28;20065;-60
2022/03/06 13:11:50;;;;;;;27.92;13.55;;;;;;;;;;6217579;28;20125;-60
2022/03/06 13:14:51;;;;;;;31.15;13.10;;;;;;;;;;6222607;28;20088;-59
2022/03/06 13:18:01;;;;;;;36.38;15.15;;;;;;;;;;6221586;28;20512;-61
2022/03/06 13:21:14;;;;;;;27.20;11.18;;;;;;;;;;6223594;28;20065;-61
2022/03/06 13:24:17;;;;;;;55.97;16.85;;;;;;;;;;6222307;28;20073;-60
2022/03/06 13:27:24;;;;;;;36.85;13.23;;;;;;;;;;6221134;28;20049;-61
2022/03/06 13:30:36;;;;;;;26.15;12.20;;;;;;;;;;6220645;28;20099;-61
2022/03/06 13:33:36;;;;;;;22.77;10.30;;;;;;;;;;6218454;28;20054;-62
2022/03/06 13:36:38;;;;;;;21.10;9.90;;;;;;;;;;6223012;28;20506;-61
2022/03/06 13:39:52;;;;;;;28.08;10.95;;;;;;;;;;6224088;28;20968;-61
2022/03/06 13:42:54;;;;;;;32.00;14.63;;;;;;;;;;6223642;28;20058;-61
2022/03/06 13:45:55;;;;;;;34.47;14.30;;;;;;;;;;6224242;28;20153;-61
2022/03/06 13:49:07;;;;;;;35.63;13.15;;;;;;;;;;6214255;28;20057;-60
2022/03/06 13:52:08;;;;;;;48.85;15.32;;;;;;;;;;6214698;28;20137;-61
2022/03/06 13:55:11;;;;;;;94.60;22.92;;;;;;;;;;6218978;28;20176;-63
2022/03/06 13:58:16;;;;;;;30.42;11.88;;;;;;;;;;6217642;28;20511;-60
2022/03/06 14:01:17;;;;;;;55.10;15.60;;;;;;;;;;6216925;28;20498;-61
2022/03/06 14:04:24;;;;;;;71.68;21.73;;;;;;;;;;6218110;28;20052;-62
2022/03/06 14:07:28;;;;;;;30.25;12.05;;;;;;;;;;6216275;28;20054;-62
2022/03/06 14:10:46;;;;;;;30.50;11.82;;;;;;;;;;6216899;28;20125;-62
2022/03/06 14:13:52;;;;;;;24.13;10.70;;;;;;;;;;6213835;28;20571;-60
2022/03/06 14:17:03;;;;;;;56.63;22.75;;;;;;;;;;6216938;28;20141;-61
2022/03/06 14:20:05;;;;;;;51.10;16.55;;;;;;;;;;6216180;28;20053;-61
2022/03/06 14:23:06;;;;;;;51.85;19.55;;;;;;;;;;6214675;28;20495;-69
2022/03/06 14:26:07;;;;;;;39.60;15.13;;;;;;;;;;6216966;28;20073;-60
2022/03/06 14:29:13;;;;;;;34.78;14.57;;;;;;;;;;6215572;28;20140;-60
2022/03/06 14:32:15;;;;;;;29.73;11.45;;;;;;;;;;6211274;28;20424;-59
2022/03/06 14:35:16;;;;;;;32.05;11.98;;;;;;;;;;6212368;28;20504;-60
2022/03/06 14:38:17;;;;;;;34.08;13.75;;;;;;;;;;6218633;28;20505;-59
2022/03/06 14:41:18;;;;;;;28.88;12.07;;;;;;;;;;6218692;28;20046;-61
2022/03/06 14:44:21;;;;;;;35.13;12.98;;;;;;;;;;6213988;28;20116;-60
2022/03/06 14:47:23;;;;;;;33.67;12.65;;;;;;;;;;6212235;28;20686;-60
2022/03/06 14:50:24;;;;;;;30.33;13.38;;;;;;;;;;6218571;28;20069;-60
2022/03/06 14:53:25;;;;;;;36.63;14.98;;;;;;;;;;6214674;28;20064;-60
2022/03/06 14:56:27;;;;;;;33.43;14.70;;;;;;;;;;6214659;28;20057;-59
2022/03/06 14:59:27;;;;;;;31.58;13.50;;;;;;;;;;6217897;28;20782;-61
2022/03/06 15:02:28;;;;;;;42.83;16.73;;;;;;;;;;6215440;28;20157;-61
2022/03/06 15:05:30;;;;;;;42.25;15.93;;;;;;;;;;6216641;28;20046;-61
2022/03/06 15:08:31;;;;;;;34.33;13.10;;;;;;;;;;6213599;28;20125;-61
2022/03/06 15:11:32;;;;;;;30.52;12.68;;;;;;;;;;6216531;28;20056;-62
2022/03/06 15:14:34;;;;;;;29.27;12.70;;;;;;;;;;6215083;28;20808;-60
2022/03/06 15:17:35;;;;;;;35.35;13.18;;;;;;;;;;6213505;28;20078;-61
2022/03/06 15:20:36;;;;;;;39.92;14.10;;;;;;;;;;6216549;28;20410;-61
2022/03/06 15:23:37;;;;;;;31.95;13.20;;;;;;;;;;6209493;28;20058;-61
2022/03/06 15:26:38;;;;;;;31.95;12.32;;;;;;;;;;6216258;28;20056;-61
2022/03/06 15:29:39;;;;;;;33.88;13.70;;;;;;;;;;6215449;28;20046;-59
2022/03/06 15:32:41;;;;;;;32.03;13.05;;;;;;;;;;6214929;28;20395;-59
2022/03/06 15:35:42;;;;;;;34.03;14.68;;;;;;;;;;6217865;28;20046;-58
2022/03/06 15:38:43;;;;;;;43.72;14.98;;;;;;;;;;6223159;28;20048;-61
2022/03/06 15:41:45;;;;;;;48.25;17.83;;;;;;;;;;6223899;28;20041;-58
2022/03/06 15:44:45;;;;;;;47.13;16.92;;;;;;;;;;6221007;28;20165;-58
2022/03/06 15:47:47;;;;;;;62.75;20.35;;;;;;;;;;6217947;28;20422;-59
2022/03/06 15:50:51;;;;;;;67.38;22.20;;;;;;;;;;6216049;28;20054;-59
2022/03/06 15:53:51;;;;;;;52.42;19.08;;;;;;;;;;6219780;28;20080;-59
2022/03/06 15:56:53;;;;;;;48.92;18.65;;;;;;;;;;6219607;28;20053;-57
2022/03/06 15:59:54;;;;;;;40.08;17.73;;;;;;;;;;6213749;28;20049;-58
2022/03/06 16:02:55;;;;;;;43.63;16.55;;;;;;;;;;6217817;28;20057;-57
2022/03/06 16:05:56;;;;;;;43.88;18.42;;;;;;;;;;6214658;28;20150;-58
2022/03/06 16:08:57;;;;;;;43.72;16.55;;;;;;;;;;6217000;28;20061;-57
2022/03/06 16:11:59;;;;;;;41.55;17.40;;;;;;;;;;6216709;28;20140;-60
2022/03/06 16:15:00;;;;;;;54.25;22.33;;;;;;;;;;6219642;28;20041;-56
2022/03/06 16:18:01;;;;;;;53.53;21.25;;;;;;;;;;6219370;28;20096;-57
2022/03/06 16:21:02;;;;;;;90.63;27.40;;;;;;;;;;6219355;28;20061;-56
2022/03/06 16:24:03;;;;;;;99.80;25.77;;;;;;;;;;6214389;28;20050;-58
2022/03/06 16:27:04;;;;;;;44.60;18.35;;;;;;;;;;6218985;28;20073;-58
2022/03/06 16:30:07;;;;;;;50.80;20.00;;;;;;;;;;6218290;28;20060;-58
2022/03/06 16:33:08;;;;;;;42.83;17.45;;;;;;;;;;6218546;28;20045;-57
2022/03/06 16:36:09;;;;;;;40.50;16.30;;;;;;;;;;6221287;28;20187;-59
2022/03/06 16:39:13;;;;;;;49.67;19.17;;;;;;;;;;6216277;28;20459;-58
2022/03/06 16:42:13;;;;;;;49.38;17.45;;;;;;;;;;6220374;28;20049;-56
2022/03/06 16:45:15;;;;;;;48.97;18.23;;;;;;;;;;6219911;28;20049;-55
2022/03/06 16:48:16;;;;;;;62.67;24.17;;;;;;;;;;6219650;28;20149;-55
2022/03/06 16:51:19;;;;;;;82.20;26.48;;;;;;;;;;6213379;28;20096;-60
2022/03/06 16:54:20;;;;;;;69.90;23.27;;;;;;;;;;6216375;28;20049;-58
2022/03/06 16:57:22;;;;;;;49.10;20.05;;;;;;;;;;6217283;28;20112;-59
2022/03/06 17:00:23;;;;;;;46.58;19.48;;;;;;;;;;6216810;28;20252;-61
2022/03/06 17:03:24;;;;;;;50.53;18.17;;;;;;;;;;6211067;28;20053;-59
2022/03/06 17:06:25;;;;;;;50.53;20.10;;;;;;;;;;6214277;28;20050;-59
2022/03/06 17:09:26;;;;;;;46.60;20.55;;;;;;;;;;6220979;28;20132;-61
2022/03/06 17:12:27;;;;;;;49.70;19.77;;;;;;;;;;6212838;28;20507;-61
2022/03/06 17:15:29;;;;;;;50.30;20.90;;;;;;;;;;6215020;28;20054;-61
2022/03/06 17:18:30;;;;;;;57.35;23.25;;;;;;;;;;6220231;28;20486;-60
2022/03/06 17:21:36;;;;;;;53.25;20.48;;;;;;;;;;6210264;28;20053;-61
2022/03/06 17:24:37;;;;;;;49.92;21.25;;;;;;;;;;6219232;28;20868;-60
2022/03/06 17:27:39;;;;;;;51.10;20.52;;;;;;;;;;6220312;28;20092;-61
2022/03/06 17:30:41;;;;;;;57.75;22.42;;;;;;;;;;6222259;28;20496;-60
2022/03/06 17:33:44;;;;;;;54.80;23.03;;;;;;;;;;6217335;28;20483;-57
2022/03/06 17:36:45;;;;;;;50.42;21.83;;;;;;;;;;6215022;28;20307;-59
2022/03/06 17:39:48;;;;;;;57.20;23.42;;;;;;;;;;6221845;28;20050;-60
2022/03/06 17:42:48;;;;;;;48.00;20.90;;;;;;;;;;6214457;28;20080;-60